ADDS TAF Board (Experimental) INFO

IDs: Format: Expanded Condensed

Updated at: 0746 UTC 19 Sep 2014

KPIT - Pittsburgh Intl, PA, US

Issued at 0525 UTC 19 Sep 2014
Time0651Z19/08Z19/09Z19/10Z19/11Z19/12Z19/13Z19/14Z19/15Z19/16Z19/17Z19/18Z19/19Z19/20Z
TypeOBSPRVLPRVLPRVLPRVLPRVLPRVLPRVLPRVLPRVLPRVLPRVLPRVLPRVL
VIS10>6>6>6>6>6>6>6>6>6>6>6>6>6
CIG----------------------------
CoverSCTSCTSCTSCTSCTSCTSCTSCTSKCSKCSKCSKCSKCSKC
FltCat--VFRVFRVFRVFRVFRVFRVFRVFRVFRVFRVFRVFRVFR
WX----------------------------
WDir2020202020202020120120120120120120
WSpd48888888555555
WGst----------------------------
R10/28
XWnd48888888-2-2-2-2-2-2
HWnd12222222444444
R14/32
XWnd47777777111111
HWnd-2-4-4-4-4-4-4-4555555
Raw TAF
KPIT 190525Z 1906/2012 02008KT P6SM SCT060
  FM191500 12005KT P6SM SKC


Raw METAR
KPIT 190651Z 02004KT 10SM SCT049 12/09 A3019 RMK AO2 SLP230 T01170094

TAF Board Legend

Hazard VFR MVFR IFR LIFR
Visibility (sm) >5 3≤X≤5 1≤X<3 <1
Ceiling (100 ft) >30 10≤X≤30 5≤X<10 <5
Wind Speed (kt) <10 10≤X<20 20≤X<30 ≥30
Wind Gust (kt) <15 15≤X<25 25≤X<35 ≥35
Weather No Wx Reported VCTS,-TS,-FZRA TS,FZRA +TS,+FZRA


Page loaded:  07:46 UTC  |   12:46 AM Pacific  |   01:46 AM Mountain  |   02:46 AM Central  |   03:46 AM Eastern

 

ADVISORIES

FORECASTS

FORECASTS

OBSERVATIONS

USER TOOLS

ABOUT US